createdAt,value
2022-10-19T00:01:11.016Z,14.93
2022-10-19T00:03:38.877Z,14.94
2022-10-19T00:06:20.684Z,14.92
2022-10-19T00:08:47.687Z,14.92
2022-10-19T00:11:14.791Z,14.91
2022-10-19T00:13:41.738Z,14.89
2022-10-19T00:16:12.030Z,14.89
2022-10-19T00:18:40.008Z,14.87
2022-10-19T00:21:08.998Z,14.86
2022-10-19T00:23:38.850Z,14.81
2022-10-19T00:26:06.170Z,14.76
2022-10-19T00:28:33.446Z,14.63
2022-10-19T00:31:10.684Z,14.59
2022-10-19T00:33:37.921Z,14.56
2022-10-19T00:36:05.956Z,14.56
2022-10-19T00:38:33.227Z,14.55
2022-10-19T00:41:00.311Z,14.64
2022-10-19T00:43:30.421Z,14.73
2022-10-19T00:45:57.567Z,14.80
2022-10-19T00:48:35.340Z,14.81
2022-10-19T00:51:04.804Z,14.82
2022-10-19T00:53:31.955Z,14.87
2022-10-19T00:56:07.672Z,14.89
2022-10-19T00:58:34.686Z,14.91
2022-10-19T01:01:05.728Z,14.87
2022-10-19T01:03:33.749Z,14.88
2022-10-19T01:06:01.919Z,14.86
2022-10-19T01:08:29.277Z,14.86
2022-10-19T01:11:05.741Z,14.85
2022-10-19T01:13:57.155Z,14.83
2022-10-19T01:16:36.485Z,14.84
2022-10-19T01:19:15.523Z,14.84
2022-10-19T01:21:50.401Z,14.84
2022-10-19T01:24:38.408Z,14.78
2022-10-19T01:27:32.423Z,14.73
2022-10-19T01:30:17.504Z,14.64
2022-10-19T01:32:52.230Z,14.62
2022-10-19T01:35:45.601Z,14.55
2022-10-19T01:38:20.009Z,14.52
2022-10-19T01:41:05.496Z,14.46
2022-10-19T01:43:38.910Z,14.38
2022-10-19T01:46:21.759Z,14.26
2022-10-19T01:48:56.758Z,14.19
2022-10-19T01:51:29.116Z,14.11
2022-10-19T01:54:01.010Z,14.00
2022-10-19T01:56:33.253Z,13.96
2022-10-19T01:59:04.458Z,13.94
2022-10-19T02:01:35.792Z,13.91
2022-10-19T02:04:04.358Z,13.84
2022-10-19T02:06:33.533Z,13.77
2022-10-19T02:09:00.919Z,13.70
2022-10-19T02:11:29.716Z,13.63
2022-10-19T02:14:04.727Z,13.58
2022-10-19T02:16:39.755Z,13.50
2022-10-19T02:19:12.266Z,13.39
2022-10-19T02:21:39.820Z,13.37
2022-10-19T02:24:08.200Z,13.28
2022-10-19T02:26:35.154Z,13.26
2022-10-19T02:29:04.953Z,13.14
2022-10-19T02:31:32.256Z,13.12
2022-10-19T02:33:59.579Z,13.04
2022-10-19T02:36:26.976Z,12.98
2022-10-19T02:38:54.392Z,12.95
2022-10-19T02:41:27.741Z,12.93
2022-10-19T02:44:01.189Z,12.89
2022-10-19T02:46:34.982Z,12.86
2022-10-19T02:49:04.578Z,12.83
2022-10-19T02:51:35.054Z,12.78
2022-10-19T02:54:05.233Z,12.74
2022-10-19T02:56:33.558Z,12.72
2022-10-19T02:59:01.353Z,12.71
2022-10-19T03:01:31.333Z,12.64
2022-10-19T03:03:58.602Z,12.63
2022-10-19T03:06:25.562Z,12.60
2022-10-19T03:08:52.614Z,12.55
2022-10-19T03:11:19.842Z,12.53
2022-10-19T03:16:14.924Z,12.47
2022-10-19T03:18:42.433Z,12.46
2022-10-19T03:21:11.908Z,12.51
2022-10-19T03:23:40.431Z,12.48
2022-10-19T03:26:11.494Z,12.50
2022-10-19T03:28:42.202Z,12.45
2022-10-19T03:31:09.802Z,12.47
2022-10-19T03:33:36.889Z,12.45
2022-10-19T03:36:24.448Z,12.45
2022-10-19T03:38:56.041Z,12.40
2022-10-19T03:41:26.194Z,12.38
2022-10-19T03:43:53.418Z,12.38
2022-10-19T03:46:21.569Z,12.40
2022-10-19T03:48:48.761Z,12.43
2022-10-19T03:51:18.479Z,12.43
2022-10-19T03:53:46.065Z,12.47
2022-10-19T03:56:15.634Z,12.50
2022-10-19T03:58:44.750Z,12.60
2022-10-19T04:01:15.576Z,12.69
2022-10-19T04:03:45.180Z,12.74
2022-10-19T04:06:21.168Z,12.78
2022-10-19T04:08:50.248Z,12.84
2022-10-19T04:11:19.899Z,12.84
2022-10-19T04:13:51.356Z,12.79
2022-10-19T04:16:19.834Z,12.78
2022-10-19T04:18:47.546Z,12.73
2022-10-19T04:21:35.401Z,12.71
2022-10-19T04:24:05.983Z,12.66
2022-10-19T04:26:34.753Z,12.60
2022-10-19T04:29:02.021Z,12.57
2022-10-19T04:31:32.255Z,12.55
2022-10-19T04:33:59.573Z,12.54
2022-10-19T04:36:26.526Z,12.46
2022-10-19T04:38:53.627Z,12.42
2022-10-19T04:41:21.861Z,12.42
2022-10-19T04:43:54.226Z,12.41
2022-10-19T04:46:21.332Z,12.34
2022-10-19T04:48:51.644Z,12.32
2022-10-19T04:51:20.029Z,12.26
2022-10-19T04:53:47.855Z,12.23
2022-10-19T04:56:20.648Z,12.17
2022-10-19T04:58:50.318Z,12.15
2022-10-19T05:01:20.681Z,12.13
2022-10-19T05:03:48.595Z,12.08
2022-10-19T05:06:16.066Z,12.08
2022-10-19T05:08:43.190Z,12.07
2022-10-19T05:11:14.166Z,12.02
2022-10-19T05:13:42.967Z,12.00
2022-10-19T05:16:15.952Z,12.08
2022-10-19T05:18:43.742Z,12.12
2022-10-19T05:21:12.767Z,12.16
2022-10-19T05:23:41.351Z,12.25
2022-10-19T05:26:11.500Z,12.31
2022-10-19T05:28:38.976Z,12.33
2022-10-19T05:31:09.872Z,12.35
2022-10-19T05:33:37.808Z,12.36
2022-10-19T05:36:32.352Z,12.43
2022-10-19T05:39:02.927Z,12.50
2022-10-19T05:41:29.974Z,12.52
2022-10-19T05:43:59.149Z,12.54
2022-10-19T05:46:29.796Z,12.55
2022-10-19T05:48:58.077Z,12.57
2022-10-19T05:51:26.930Z,12.62
2022-10-19T05:53:57.298Z,12.67
2022-10-19T05:56:26.714Z,12.74
2022-10-19T05:58:55.992Z,12.79
2022-10-19T06:01:23.022Z,12.84
2022-10-19T06:03:55.238Z,12.94
2022-10-19T06:06:26.033Z,13.01
2022-10-19T06:08:54.582Z,13.10
2022-10-19T06:11:25.645Z,13.10
2022-10-19T06:13:55.821Z,13.43
2022-10-19T06:16:24.239Z,13.68
2022-10-19T06:18:52.979Z,14.11
2022-10-19T06:21:22.918Z,14.11
2022-10-19T06:23:57.544Z,13.91
2022-10-19T06:26:26.011Z,13.82
2022-10-19T06:28:58.073Z,13.78
2022-10-19T06:31:25.053Z,13.77
2022-10-19T06:33:52.224Z,14.34
2022-10-19T06:36:22.245Z,16.27
2022-10-19T06:38:50.720Z,17.67
2022-10-19T06:41:17.898Z,18.65
2022-10-19T06:43:49.694Z,19.34
2022-10-19T06:46:20.479Z,19.85
2022-10-19T06:48:55.957Z,20.89
2022-10-19T06:51:25.512Z,21.36
2022-10-19T06:53:56.535Z,21.64
2022-10-19T06:56:26.317Z,22.50
2022-10-19T06:58:54.696Z,22.86
2022-10-19T07:01:22.819Z,22.95
2022-10-19T07:03:52.784Z,23.34
2022-10-19T07:06:22.899Z,23.43
2022-10-19T07:08:50.062Z,23.52
2022-10-19T07:11:22.513Z,22.24
2022-10-19T07:13:55.376Z,20.39
2022-10-19T07:16:22.976Z,21.80
2022-10-19T07:18:52.596Z,22.18
2022-10-19T07:21:21.565Z,22.82
2022-10-19T07:23:49.055Z,22.67
2022-10-19T07:26:23.972Z,23.35
2022-10-19T07:28:51.246Z,23.42
2022-10-19T07:31:21.169Z,23.88
2022-10-19T07:33:53.968Z,24.08
2022-10-19T07:36:23.736Z,24.71
2022-10-19T07:38:51.261Z,25.38
2022-10-19T07:41:21.483Z,25.40
2022-10-19T07:43:49.772Z,25.25
2022-10-19T07:46:19.076Z,25.45
2022-10-19T07:48:46.433Z,25.22
2022-10-19T07:51:15.535Z,23.19
2022-10-19T07:53:43.228Z,22.39
2022-10-19T07:56:15.909Z,20.83
2022-10-19T07:58:43.818Z,20.99
2022-10-19T08:01:19.586Z,21.23
2022-10-19T08:06:35.180Z,22.25
2022-10-19T08:09:02.390Z,22.73
2022-10-19T08:11:34.258Z,22.01
2022-10-19T08:14:03.176Z,20.91
2022-10-19T08:16:44.683Z,20.06
2022-10-19T08:19:14.496Z,19.77
2022-10-19T08:21:43.923Z,19.26
2022-10-19T08:24:13.209Z,18.89
2022-10-19T08:26:40.692Z,18.67
2022-10-19T08:29:12.564Z,18.28
2022-10-19T08:31:40.599Z,17.95
2022-10-19T08:34:08.205Z,17.70
2022-10-19T08:36:36.205Z,17.57
2022-10-19T08:39:06.390Z,17.58
2022-10-19T08:42:04.411Z,17.62
2022-10-19T08:45:00.732Z,18.14
2022-10-19T08:47:48.012Z,17.91
2022-10-19T08:50:20.943Z,18.21
2022-10-19T08:53:16.798Z,18.53
2022-10-19T08:56:38.856Z,18.89
2022-10-19T08:59:26.601Z,19.07
2022-10-19T09:02:01.941Z,18.71
2022-10-19T09:04:45.287Z,18.54
2022-10-19T09:07:23.703Z,18.66
2022-10-19T09:09:56.875Z,18.74
2022-10-19T09:13:03.180Z,18.71
2022-10-19T09:15:42.701Z,18.11
2022-10-19T09:18:30.173Z,18.08
2022-10-19T09:21:12.691Z,18.24
2022-10-19T09:23:47.715Z,18.17
2022-10-19T09:26:28.493Z,18.12
2022-10-19T09:29:03.519Z,18.40
2022-10-19T09:31:40.365Z,18.39
2022-10-19T09:34:31.032Z,18.40
2022-10-19T09:37:01.411Z,18.56
2022-10-19T09:39:32.856Z,18.05
2022-10-19T09:42:08.107Z,18.26
2022-10-19T09:44:35.115Z,18.34
2022-10-19T09:47:14.552Z,18.43
2022-10-19T09:49:44.227Z,18.65
2022-10-19T09:52:36.322Z,18.44
2022-10-19T09:55:23.163Z,18.39
2022-10-19T09:57:58.755Z,18.18
2022-10-19T10:00:33.529Z,18.32
2022-10-19T10:03:00.791Z,18.30
2022-10-19T10:05:47.991Z,18.19
2022-10-19T10:08:19.311Z,17.97
2022-10-19T10:10:53.338Z,18.05
2022-10-19T10:13:23.932Z,18.38
2022-10-19T10:16:09.922Z,18.53
2022-10-19T10:18:45.435Z,18.76
2022-10-19T10:21:25.117Z,18.56
2022-10-19T10:24:28.799Z,18.61
2022-10-19T10:26:58.982Z,18.99
2022-10-19T10:29:30.126Z,19.12
2022-10-19T10:32:05.347Z,19.27
2022-10-19T10:35:04.653Z,19.48
2022-10-19T10:37:37.705Z,19.24
2022-10-19T10:40:06.485Z,19.03
2022-10-19T10:42:41.381Z,19.01
2022-10-19T10:45:31.346Z,18.89
2022-10-19T10:48:22.415Z,18.92
2022-10-19T10:50:49.666Z,19.37
2022-10-19T10:53:32.025Z,19.39
2022-10-19T10:55:59.001Z,19.51
2022-10-19T10:58:50.387Z,19.70
2022-10-19T11:01:25.699Z,20.01
2022-10-19T11:04:28.646Z,19.89
2022-10-19T11:07:08.118Z,19.69
2022-10-19T11:09:40.601Z,19.93
2022-10-19T11:12:16.417Z,19.87
2022-10-19T11:14:50.545Z,19.58
2022-10-19T11:17:40.003Z,19.41
2022-10-19T11:20:11.175Z,19.59
2022-10-19T11:22:44.956Z,19.48
2022-10-19T11:25:37.105Z,19.65
2022-10-19T11:28:17.499Z,19.83
2022-10-19T11:31:00.283Z,19.96
2022-10-19T11:33:36.574Z,19.95
2022-10-19T11:36:12.784Z,19.87
2022-10-19T11:38:45.782Z,20.17
2022-10-19T11:41:17.698Z,20.27
2022-10-19T11:44:04.170Z,20.22
2022-10-19T11:46:59.621Z,19.98
2022-10-19T11:49:40.849Z,19.58
2022-10-19T11:52:17.111Z,19.34
2022-10-19T11:54:56.063Z,19.07
2022-10-19T11:57:30.562Z,19.14
2022-10-19T12:00:39.024Z,19.13
2022-10-19T12:03:40.486Z,19.04
2022-10-19T12:06:16.344Z,19.00
2022-10-19T12:09:23.766Z,19.04
2022-10-19T12:12:15.029Z,18.93
2022-10-19T12:14:45.123Z,19.06
2022-10-19T12:17:24.181Z,19.20
2022-10-19T12:19:56.332Z,19.31
2022-10-19T12:22:26.881Z,18.97
2022-10-19T12:24:57.369Z,18.73
2022-10-19T12:27:39.203Z,18.40
2022-10-19T12:30:08.465Z,18.37
2022-10-19T12:32:53.426Z,18.39
2022-10-19T12:35:35.305Z,18.43
2022-10-19T12:38:16.425Z,18.46
2022-10-19T12:40:46.257Z,18.49
2022-10-19T12:43:13.505Z,18.37
2022-10-19T12:46:02.098Z,18.36
2022-10-19T12:48:29.154Z,18.16
2022-10-19T12:51:00.558Z,18.13
2022-10-19T12:53:31.130Z,18.21
2022-10-19T12:56:20.460Z,18.20
2022-10-19T12:58:53.189Z,18.27
2022-10-19T13:01:28.286Z,18.33
2022-10-19T13:04:14.818Z,18.21
2022-10-19T13:06:48.528Z,18.23
2022-10-19T13:09:36.619Z,18.24
2022-10-19T13:12:19.650Z,18.23
2022-10-19T13:15:00.930Z,18.12
2022-10-19T13:17:48.610Z,17.91
2022-10-19T13:20:15.729Z,17.76
2022-10-19T13:22:50.745Z,17.64
2022-10-19T13:25:43.665Z,17.64
2022-10-19T13:28:10.829Z,17.59
2022-10-19T13:30:37.689Z,17.49
2022-10-19T13:33:25.983Z,17.27
2022-10-19T13:35:59.426Z,17.13
2022-10-19T13:38:30.913Z,16.99
2022-10-19T13:41:11.987Z,16.88
2022-10-19T13:44:01.979Z,16.91
2022-10-19T13:46:29.268Z,16.86
2022-10-19T13:49:30.372Z,16.92
2022-10-19T13:52:09.082Z,16.84
2022-10-19T13:55:09.506Z,16.73
2022-10-19T13:58:14.158Z,16.67
2022-10-19T14:01:06.674Z,16.62
2022-10-19T14:03:48.958Z,16.55
2022-10-19T14:07:08.466Z,16.34
2022-10-19T14:09:51.035Z,16.11
2022-10-19T14:12:27.861Z,15.94
2022-10-19T14:14:55.075Z,15.77
2022-10-19T14:17:34.088Z,15.70
2022-10-19T14:20:24.181Z,15.66
2022-10-19T14:22:51.240Z,15.63
2022-10-19T14:25:27.556Z,15.54
2022-10-19T14:28:00.140Z,15.47
2022-10-19T14:30:33.837Z,15.32
2022-10-19T14:33:07.027Z,15.19
2022-10-19T14:35:40.340Z,15.11
2022-10-19T14:38:09.079Z,15.02
2022-10-19T14:40:41.246Z,14.98
2022-10-19T14:43:31.317Z,14.93
2022-10-19T14:46:07.324Z,14.90
2022-10-19T14:48:47.475Z,14.82
2022-10-19T14:51:33.459Z,14.78
2022-10-19T14:54:08.391Z,14.74
2022-10-19T14:56:53.208Z,14.59
2022-10-19T14:59:29.448Z,14.54
2022-10-19T15:02:03.892Z,14.49
2022-10-19T15:04:37.135Z,14.44
2022-10-19T15:07:17.237Z,14.31
2022-10-19T15:09:52.072Z,14.25
2022-10-19T15:12:27.110Z,14.13
2022-10-19T15:14:54.727Z,14.10
2022-10-19T15:17:24.894Z,14.03
2022-10-19T15:19:52.662Z,13.89
2022-10-19T15:22:38.233Z,13.79
2022-10-19T15:25:08.248Z,13.70
2022-10-19T15:27:41.906Z,13.65
2022-10-19T15:30:26.973Z,13.52
2022-10-19T15:33:00.633Z,13.45
2022-10-19T15:35:33.921Z,13.35
2022-10-19T15:38:16.582Z,13.23
2022-10-19T15:40:47.371Z,13.11
2022-10-19T15:43:46.197Z,13.08
2022-10-19T15:46:13.453Z,12.95
2022-10-19T15:48:40.611Z,12.84
2022-10-19T15:51:26.191Z,12.66
2022-10-19T15:54:01.844Z,12.57
2022-10-19T15:56:32.219Z,12.53
2022-10-19T15:59:05.308Z,12.47
2022-10-19T16:01:33.489Z,12.35
2022-10-19T16:04:00.907Z,12.23
2022-10-19T16:06:32.050Z,12.10
2022-10-19T16:09:00.488Z,12.13
2022-10-19T16:11:29.080Z,12.11
2022-10-19T16:13:56.996Z,12.11
2022-10-19T16:16:31.061Z,12.08
2022-10-19T16:19:03.284Z,12.06
2022-10-19T16:21:35.602Z,11.98
2022-10-19T16:24:07.689Z,11.91
2022-10-19T16:26:36.372Z,11.84
2022-10-19T16:29:06.592Z,11.74
2022-10-19T16:31:34.791Z,11.63
2022-10-19T16:34:03.373Z,11.54
2022-10-19T16:36:30.962Z,11.43
2022-10-19T16:39:02.219Z,11.48
2022-10-19T16:41:30.232Z,11.49
2022-10-19T16:43:58.131Z,11.47
2022-10-19T16:46:28.969Z,11.34
2022-10-19T16:48:56.883Z,11.17
2022-10-19T16:51:25.835Z,11.19
2022-10-19T16:53:57.436Z,11.20
2022-10-19T16:56:28.095Z,11.15
2022-10-19T16:58:59.999Z,11.01
2022-10-19T17:01:29.496Z,10.97
2022-10-19T17:03:58.247Z,10.95
2022-10-19T17:06:27.676Z,10.83
2022-10-19T17:11:49.288Z,10.74
2022-10-19T17:14:17.801Z,10.65
2022-10-19T17:16:49.530Z,10.53
2022-10-19T17:19:18.215Z,10.52
2022-10-19T17:21:52.537Z,10.44
2022-10-19T17:24:23.238Z,10.39
2022-10-19T17:26:53.073Z,10.41
2022-10-19T17:29:23.471Z,10.39
2022-10-19T17:31:56.032Z,10.34
2022-10-19T17:34:28.238Z,10.26
2022-10-19T17:36:57.898Z,10.31
2022-10-19T17:39:30.004Z,10.45
2022-10-19T17:42:03.517Z,10.42
2022-10-19T17:44:32.370Z,10.48
2022-10-19T17:47:01.988Z,10.55
2022-10-19T17:49:31.847Z,10.56
2022-10-19T17:52:00.705Z,10.62
2022-10-19T17:54:29.228Z,10.74
2022-10-19T17:57:00.676Z,10.84
2022-10-19T17:59:40.539Z,10.89
2022-10-19T18:02:18.831Z,10.91
2022-10-19T18:04:50.444Z,10.93
2022-10-19T18:07:26.315Z,10.92
2022-10-19T18:09:56.561Z,10.92
2022-10-19T18:12:27.401Z,10.97
2022-10-19T18:14:57.533Z,10.99
2022-10-19T18:17:27.869Z,11.03
2022-10-19T18:19:58.276Z,11.03
2022-10-19T18:22:32.527Z,11.05
2022-10-19T18:25:04.870Z,11.05
2022-10-19T18:27:35.984Z,11.05
2022-10-19T18:30:11.795Z,11.06
2022-10-19T18:32:40.263Z,11.03
2022-10-19T18:35:11.022Z,11.00
2022-10-19T18:37:40.302Z,10.97
2022-10-19T18:40:12.958Z,10.89
2022-10-19T18:42:41.682Z,10.78
2022-10-19T18:45:16.988Z,10.65
2022-10-19T18:47:49.460Z,10.49
2022-10-19T18:50:22.585Z,10.37
2022-10-19T18:52:52.078Z,10.25
2022-10-19T18:55:22.583Z,10.16
2022-10-19T18:57:51.808Z,10.14
2022-10-19T19:00:25.539Z,10.05
2022-10-19T19:03:02.277Z,10.06
2022-10-19T19:05:37.619Z,10.09
2022-10-19T19:08:07.438Z,10.06
2022-10-19T19:10:37.764Z,9.97
2022-10-19T19:13:09.303Z,9.88
2022-10-19T19:15:43.862Z,9.78
2022-10-19T19:18:13.862Z,9.71
2022-10-19T19:20:45.645Z,9.63
2022-10-19T19:23:15.223Z,9.55
2022-10-19T19:25:44.830Z,9.45
2022-10-19T19:28:16.865Z,9.42
2022-10-19T19:30:47.469Z,9.39
2022-10-19T19:33:19.736Z,9.35
2022-10-19T19:35:50.983Z,9.29
2022-10-19T19:38:19.819Z,9.21
2022-10-19T19:40:50.145Z,9.17
2022-10-19T19:43:21.932Z,9.15
2022-10-19T19:46:00.979Z,9.13
2022-10-19T19:48:33.844Z,9.10
2022-10-19T19:51:13.443Z,9.08
2022-10-19T19:53:42.550Z,9.09
2022-10-19T19:56:13.710Z,9.02
2022-10-19T19:58:43.888Z,9.09
2022-10-19T20:01:19.302Z,9.14
2022-10-19T20:03:53.848Z,9.15
2022-10-19T20:06:26.151Z,9.16
2022-10-19T20:09:00.765Z,9.09
2022-10-19T20:11:41.234Z,9.06
2022-10-19T20:14:13.580Z,9.06
2022-10-19T20:16:45.600Z,9.05
2022-10-19T20:19:15.824Z,9.02
2022-10-19T20:21:46.110Z,8.94
2022-10-19T20:24:17.838Z,8.93
2022-10-19T20:26:49.911Z,8.93
2022-10-19T20:29:19.177Z,8.93
2022-10-19T20:31:48.264Z,8.90
2022-10-19T20:34:19.524Z,8.86
2022-10-19T20:37:10.428Z,8.79
2022-10-19T20:39:40.507Z,8.72
2022-10-19T20:42:08.792Z,8.76
2022-10-19T20:44:36.464Z,8.74
2022-10-19T20:47:04.933Z,8.71
2022-10-19T20:49:32.694Z,8.67
2022-10-19T20:52:00.845Z,8.56
2022-10-19T20:54:28.740Z,8.52
2022-10-19T20:56:57.801Z,8.43
2022-10-19T20:59:27.829Z,8.39
2022-10-19T21:02:00.031Z,8.38
2022-10-19T21:04:27.633Z,8.28
2022-10-19T21:06:54.836Z,8.16
2022-10-19T21:09:26.070Z,8.02
2022-10-19T21:11:53.402Z,7.87
2022-10-19T21:14:26.986Z,7.79
2022-10-19T21:16:59.621Z,7.77
2022-10-19T21:19:28.639Z,7.71
2022-10-19T21:22:06.138Z,7.67
2022-10-19T21:24:36.076Z,7.64
2022-10-19T21:27:06.702Z,7.56
2022-10-19T21:29:34.325Z,7.53
2022-10-19T21:32:01.956Z,7.56
2022-10-19T21:34:30.310Z,7.54
2022-10-19T21:36:58.396Z,7.54
2022-10-19T21:39:25.398Z,7.53
2022-10-19T21:41:52.976Z,7.52
2022-10-19T21:44:22.207Z,7.51
2022-10-19T21:46:51.788Z,7.58
2022-10-19T21:49:18.950Z,7.59
2022-10-19T21:51:50.896Z,7.59
2022-10-19T21:54:20.452Z,7.55
2022-10-19T21:56:48.305Z,7.56
2022-10-19T21:59:15.524Z,7.52
2022-10-19T22:01:43.138Z,7.47
2022-10-19T22:04:16.044Z,7.37
2022-10-19T22:06:43.986Z,7.33
2022-10-19T22:09:15.172Z,7.30
2022-10-19T22:11:42.925Z,7.28
2022-10-19T22:14:11.638Z,7.24
2022-10-19T22:16:40.367Z,7.22
2022-10-19T22:19:07.784Z,7.23
2022-10-19T22:21:35.508Z,7.22
2022-10-19T22:24:09.443Z,7.21
2022-10-19T22:26:40.154Z,7.20
2022-10-19T22:29:08.062Z,7.22
2022-10-19T22:31:36.230Z,7.19
2022-10-19T22:34:09.225Z,7.18
2022-10-19T22:36:36.503Z,7.15
2022-10-19T22:39:04.165Z,7.13
2022-10-19T22:41:33.723Z,7.12
2022-10-19T22:44:00.692Z,7.07
2022-10-19T22:46:30.287Z,7.03
2022-10-19T22:48:57.328Z,6.96
2022-10-19T22:51:24.556Z,6.93
2022-10-19T22:53:51.502Z,6.92
2022-10-19T22:56:18.623Z,6.93
2022-10-19T22:58:45.800Z,6.86
2022-10-19T23:01:15.024Z,6.87
2022-10-19T23:03:42.240Z,6.77
2022-10-19T23:06:12.086Z,6.60
2022-10-19T23:08:39.615Z,6.49
2022-10-19T23:11:07.218Z,6.40
2022-10-19T23:13:34.226Z,6.35
2022-10-19T23:16:01.723Z,6.29
2022-10-19T23:18:35.820Z,6.23
2022-10-19T23:21:09.523Z,6.24
2022-10-19T23:23:37.117Z,6.20
2022-10-19T23:26:16.931Z,6.22
2022-10-19T23:28:46.332Z,6.35
2022-10-19T23:31:16.447Z,6.40
2022-10-19T23:33:46.788Z,6.44
2022-10-19T23:36:14.484Z,6.46
2022-10-19T23:38:43.180Z,6.47
2022-10-19T23:41:11.166Z,6.49
2022-10-19T23:43:38.309Z,6.44
2022-10-19T23:46:05.710Z,6.42
2022-10-19T23:48:34.456Z,6.35
2022-10-19T23:51:09.794Z,6.36
2022-10-19T23:53:41.056Z,6.33
2022-10-19T23:56:12.144Z,6.32
2022-10-19T23:58:42.523Z,6.27
